sensor_id;sensor_type;location;lat;lon;timestamp;temperature;humidity
6462;DHT22;3264;42.862;25.098;2023-01-19T00:02:12;15.10;68.70
6462;DHT22;3264;42.862;25.098;2023-01-19T00:04:42;14.90;68.70
6462;DHT22;3264;42.862;25.098;2023-01-19T00:07:15;14.60;69.90
6462;DHT22;3264;42.862;25.098;2023-01-19T00:09:43;14.50;70.20
6462;DHT22;3264;42.862;25.098;2023-01-19T00:12:10;14.10;71.80
6462;DHT22;3264;42.862;25.098;2023-01-19T00:14:40;14.60;68.10
6462;DHT22;3264;42.862;25.098;2023-01-19T00:17:20;14.30;70.00
6462;DHT22;3264;42.862;25.098;2023-01-19T00:19:50;14.80;67.10
6462;DHT22;3264;42.862;25.098;2023-01-19T00:22:22;15.30;64.90
6462;DHT22;3264;42.862;25.098;2023-01-19T00:24:49;15.50;64.20
6462;DHT22;3264;42.862;25.098;2023-01-19T00:27:22;15.90;61.80
6462;DHT22;3264;42.862;25.098;2023-01-19T00:29:50;15.70;62.70
6462;DHT22;3264;42.862;25.098;2023-01-19T00:32:20;15.50;63.50
6462;DHT22;3264;42.862;25.098;2023-01-19T00:34:55;15.60;63.60
6462;DHT22;3264;42.862;25.098;2023-01-19T00:37:24;15.20;64.90
6462;DHT22;3264;42.862;25.098;2023-01-19T00:39:54;15.40;63.90
6462;DHT22;3264;42.862;25.098;2023-01-19T00:42:26;15.30;64.20
6462;DHT22;3264;42.862;25.098;2023-01-19T00:45:13;15.50;63.50
6462;DHT22;3264;42.862;25.098;2023-01-19T00:47:45;15.50;64.00
6462;DHT22;3264;42.862;25.098;2023-01-19T00:50:18;15.60;63.40
6462;DHT22;3264;42.862;25.098;2023-01-19T00:52:47;15.80;62.70
6462;DHT22;3264;42.862;25.098;2023-01-19T00:55:20;15.30;64.10
6462;DHT22;3264;42.862;25.098;2023-01-19T00:57:50;15.60;63.90
6462;DHT22;3264;42.862;25.098;2023-01-19T01:00:24;15.90;61.80
6462;DHT22;3264;42.862;25.098;2023-01-19T01:02:55;15.70;62.50
6462;DHT22;3264;42.862;25.098;2023-01-19T01:05:22;15.50;63.80
6462;DHT22;3264;42.862;25.098;2023-01-19T01:07:56;15.50;63.60
6462;DHT22;3264;42.862;25.098;2023-01-19T01:10:26;15.50;63.90
6462;DHT22;3264;42.862;25.098;2023-01-19T01:12:55;15.40;64.10
6462;DHT22;3264;42.862;25.098;2023-01-19T01:15:25;15.30;63.80
6462;DHT22;3264;42.862;25.098;2023-01-19T01:17:56;15.40;63.90
6462;DHT22;3264;42.862;25.098;2023-01-19T01:20:30;15.20;64.20
6462;DHT22;3264;42.862;25.098;2023-01-19T01:23:01;15.70;62.40
6462;DHT22;3264;42.862;25.098;2023-01-19T01:25:30;15.20;64.20
6462;DHT22;3264;42.862;25.098;2023-01-19T01:28:02;15.30;63.60
6462;DHT22;3264;42.862;25.098;2023-01-19T01:30:32;15.40;63.60
6462;DHT22;3264;42.862;25.098;2023-01-19T01:33:01;15.40;63.50
6462;DHT22;3264;42.862;25.098;2023-01-19T01:35:28;15.30;63.70
6462;DHT22;3264;42.862;25.098;2023-01-19T01:38:04;15.50;63.20
6462;DHT22;3264;42.862;25.098;2023-01-19T01:40:41;15.60;62.00
6462;DHT22;3264;42.862;25.098;2023-01-19T01:43:12;15.50;62.30
6462;DHT22;3264;42.862;25.098;2023-01-19T01:45:40;15.60;62.10
6462;DHT22;3264;42.862;25.098;2023-01-19T01:48:13;15.70;61.50
6462;DHT22;3264;42.862;25.098;2023-01-19T01:50:46;15.80;60.30
6462;DHT22;3264;42.862;25.098;2023-01-19T01:53:31;15.70;61.20
6462;DHT22;3264;42.862;25.098;2023-01-19T01:56:12;15.40;62.50
6462;DHT22;3264;42.862;25.098;2023-01-19T01:58:45;15.30;62.20
6462;DHT22;3264;42.862;25.098;2023-01-19T02:01:13;15.20;62.80
6462;DHT22;3264;42.862;25.098;2023-01-19T02:03:58;15.20;62.90
6462;DHT22;3264;42.862;25.098;2023-01-19T02:06:26;15.50;61.90
6462;DHT22;3264;42.862;25.098;2023-01-19T02:09:01;15.30;61.80
6462;DHT22;3264;42.862;25.098;2023-01-19T02:11:47;15.40;61.90
6462;DHT22;3264;42.862;25.098;2023-01-19T02:14:34;15.20;62.50
6462;DHT22;3264;42.862;25.098;2023-01-19T02:17:31;15.20;62.70
6462;DHT22;3264;42.862;25.098;2023-01-19T02:20:02;15.10;63.00
6462;DHT22;3264;42.862;25.098;2023-01-19T02:22:43;15.10;62.70
6462;DHT22;3264;42.862;25.098;2023-01-19T02:25:28;15.10;62.80
6462;DHT22;3264;42.862;25.098;2023-01-19T02:27:56;15.30;62.20
6462;DHT22;3264;42.862;25.098;2023-01-19T02:30:24;15.30;61.50
6462;DHT22;3264;42.862;25.098;2023-01-19T02:32:54;15.40;61.20
6462;DHT22;3264;42.862;25.098;2023-01-19T02:35:22;15.70;60.00
6462;DHT22;3264;42.862;25.098;2023-01-19T02:37:52;15.40;60.40
6462;DHT22;3264;42.862;25.098;2023-01-19T02:40:22;15.60;59.40
6462;DHT22;3264;42.862;25.098;2023-01-19T02:42:56;15.60;59.60
6462;DHT22;3264;42.862;25.098;2023-01-19T02:45:26;15.70;59.40
6462;DHT22;3264;42.862;25.098;2023-01-19T02:47:57;15.70;59.80
6462;DHT22;3264;42.862;25.098;2023-01-19T02:50:41;15.50;60.00
6462;DHT22;3264;42.862;25.098;2023-01-19T02:53:39;15.80;59.30
6462;DHT22;3264;42.862;25.098;2023-01-19T02:56:37;15.90;59.00
6462;DHT22;3264;42.862;25.098;2023-01-19T02:59:13;15.70;59.10
6462;DHT22;3264;42.862;25.098;2023-01-19T03:01:56;15.80;58.40
6462;DHT22;3264;42.862;25.098;2023-01-19T03:04:58;15.70;58.90
6462;DHT22;3264;42.862;25.098;2023-01-19T03:07:36;15.80;58.30
6462;DHT22;3264;42.862;25.098;2023-01-19T03:10:17;15.90;58.20
6462;DHT22;3264;42.862;25.098;2023-01-19T03:12:49;15.80;58.00
6462;DHT22;3264;42.862;25.098;2023-01-19T03:15:27;15.60;58.20
6462;DHT22;3264;42.862;25.098;2023-01-19T03:18:01;16.00;57.60
6462;DHT22;3264;42.862;25.098;2023-01-19T03:20:40;15.90;57.70
6462;DHT22;3264;42.862;25.098;2023-01-19T03:23:10;15.70;57.90
6462;DHT22;3264;42.862;25.098;2023-01-19T03:25:43;15.80;57.60
6462;DHT22;3264;42.862;25.098;2023-01-19T03:28:13;15.70;57.90
6462;DHT22;3264;42.862;25.098;2023-01-19T03:30:51;15.60;58.10
6462;DHT22;3264;42.862;25.098;2023-01-19T03:33:28;16.00;57.30
6462;DHT22;3264;42.862;25.098;2023-01-19T03:36:02;16.10;56.90
6462;DHT22;3264;42.862;25.098;2023-01-19T03:38:36;15.80;57.00
6462;DHT22;3264;42.862;25.098;2023-01-19T03:41:16;15.80;57.20
6462;DHT22;3264;42.862;25.098;2023-01-19T03:43:46;15.80;57.10
6462;DHT22;3264;42.862;25.098;2023-01-19T03:46:28;15.90;57.00
6462;DHT22;3264;42.862;25.098;2023-01-19T03:49:07;15.80;56.90
6462;DHT22;3264;42.862;25.098;2023-01-19T03:51:38;15.80;57.30
6462;DHT22;3264;42.862;25.098;2023-01-19T03:54:10;15.90;56.90
6462;DHT22;3264;42.862;25.098;2023-01-19T03:56:37;15.90;56.50
6462;DHT22;3264;42.862;25.098;2023-01-19T03:59:05;15.90;56.50
6462;DHT22;3264;42.862;25.098;2023-01-19T04:01:40;15.80;57.20
6462;DHT22;3264;42.862;25.098;2023-01-19T04:04:08;15.90;56.40
6462;DHT22;3264;42.862;25.098;2023-01-19T04:06:43;16.00;56.20
6462;DHT22;3264;42.862;25.098;2023-01-19T04:09:10;15.90;56.00
6462;DHT22;3264;42.862;25.098;2023-01-19T04:11:38;16.00;55.90
6462;DHT22;3264;42.862;25.098;2023-01-19T04:14:27;15.80;56.30
6462;DHT22;3264;42.862;25.098;2023-01-19T04:16:57;15.70;56.80
6462;DHT22;3264;42.862;25.098;2023-01-19T04:19:28;16.00;56.30
6462;DHT22;3264;42.862;25.098;2023-01-19T04:21:57;15.90;56.30
6462;DHT22;3264;42.862;25.098;2023-01-19T04:24:25;16.10;55.00
6462;DHT22;3264;42.862;25.098;2023-01-19T04:26:56;15.90;56.00
6462;DHT22;3264;42.862;25.098;2023-01-19T04:29:24;16.10;55.10
6462;DHT22;3264;42.862;25.098;2023-01-19T04:31:52;16.00;54.90
6462;DHT22;3264;42.862;25.098;2023-01-19T04:34:27;16.10;55.00
6462;DHT22;3264;42.862;25.098;2023-01-19T04:36:58;16.30;54.40
6462;DHT22;3264;42.862;25.098;2023-01-19T04:39:26;16.30;54.20
6462;DHT22;3264;42.862;25.098;2023-01-19T04:41:54;16.00;54.60
6462;DHT22;3264;42.862;25.098;2023-01-19T04:44:22;15.90;55.00
6462;DHT22;3264;42.862;25.098;2023-01-19T04:46:50;15.90;54.50
6462;DHT22;3264;42.862;25.098;2023-01-19T04:49:18;16.40;53.60
6462;DHT22;3264;42.862;25.098;2023-01-19T04:51:51;16.40;53.40
6462;DHT22;3264;42.862;25.098;2023-01-19T04:54:24;16.40;53.30
6462;DHT22;3264;42.862;25.098;2023-01-19T04:56:57;16.00;54.20
6462;DHT22;3264;42.862;25.098;2023-01-19T04:59:34;16.20;53.50
6462;DHT22;3264;42.862;25.098;2023-01-19T05:02:02;16.30;53.60
6462;DHT22;3264;42.862;25.098;2023-01-19T05:04:30;16.30;54.20
6462;DHT22;3264;42.862;25.098;2023-01-19T05:06:59;16.10;54.10
6462;DHT22;3264;42.862;25.098;2023-01-19T05:09:32;16.30;53.70
6462;DHT22;3264;42.862;25.098;2023-01-19T05:12:00;16.30;53.70
6462;DHT22;3264;42.862;25.098;2023-01-19T05:14:28;16.20;53.90
6462;DHT22;3264;42.862;25.098;2023-01-19T05:17:00;16.00;55.60
6462;DHT22;3264;42.862;25.098;2023-01-19T05:19:33;15.40;58.50
6462;DHT22;3264;42.862;25.098;2023-01-19T05:22:09;14.80;61.60
6462;DHT22;3264;42.862;25.098;2023-01-19T05:24:38;14.60;62.70
6462;DHT22;3264;42.862;25.098;2023-01-19T05:27:06;14.50;63.30
6462;DHT22;3264;42.862;25.098;2023-01-19T05:29:37;14.60;62.40
6462;DHT22;3264;42.862;25.098;2023-01-19T05:32:10;14.40;64.80
6462;DHT22;3264;42.862;25.098;2023-01-19T05:34:43;14.20;65.60
6462;DHT22;3264;42.862;25.098;2023-01-19T05:37:12;14.20;66.60
6462;DHT22;3264;42.862;25.098;2023-01-19T05:39:40;14.40;66.20
6462;DHT22;3264;42.862;25.098;2023-01-19T05:42:08;14.10;66.50
6462;DHT22;3264;42.862;25.098;2023-01-19T05:44:37;14.10;67.70
6462;DHT22;3264;42.862;25.098;2023-01-19T05:47:05;14.00;67.80
6462;DHT22;3264;42.862;25.098;2023-01-19T05:49:44;14.00;68.30
6462;DHT22;3264;42.862;25.098;2023-01-19T05:52:16;13.90;69.40
6462;DHT22;3264;42.862;25.098;2023-01-19T05:54:43;14.30;66.20
6462;DHT22;3264;42.862;25.098;2023-01-19T05:57:11;14.10;68.40
6462;DHT22;3264;42.862;25.098;2023-01-19T05:59:40;14.00;69.50
6462;DHT22;3264;42.862;25.098;2023-01-19T06:02:11;13.90;70.40
6462;DHT22;3264;42.862;25.098;2023-01-19T06:04:38;14.30;67.30
6462;DHT22;3264;42.862;25.098;2023-01-19T06:07:19;14.80;61.20
6462;DHT22;3264;42.862;25.098;2023-01-19T06:09:47;14.60;63.70
6462;DHT22;3264;42.862;25.098;2023-01-19T06:12:22;14.40;66.20
6462;DHT22;3264;42.862;25.098;2023-01-19T06:14:55;14.40;65.80
6462;DHT22;3264;42.862;25.098;2023-01-19T06:17:44;14.00;67.70
6462;DHT22;3264;42.862;25.098;2023-01-19T06:20:14;14.30;66.60
6462;DHT22;3264;42.862;25.098;2023-01-19T06:22:46;14.40;67.20
6462;DHT22;3264;42.862;25.098;2023-01-19T06:25:18;14.20;68.50
6462;DHT22;3264;42.862;25.098;2023-01-19T06:27:50;14.10;69.20
6462;DHT22;3264;42.862;25.098;2023-01-19T06:30:18;14.10;69.10
6462;DHT22;3264;42.862;25.098;2023-01-19T06:32:48;14.20;68.30
6462;DHT22;3264;42.862;25.098;2023-01-19T06:35:16;14.40;67.80
6462;DHT22;3264;42.862;25.098;2023-01-19T06:37:46;14.90;64.50
6462;DHT22;3264;42.862;25.098;2023-01-19T06:40:16;14.60;66.70
6462;DHT22;3264;42.862;25.098;2023-01-19T06:42:44;14.50;67.20
6462;DHT22;3264;42.862;25.098;2023-01-19T06:45:18;14.50;66.80
6462;DHT22;3264;42.862;25.098;2023-01-19T06:47:46;14.40;67.90
6462;DHT22;3264;42.862;25.098;2023-01-19T06:50:14;14.70;66.00
6462;DHT22;3264;42.862;25.098;2023-01-19T06:52:42;14.60;66.10
6462;DHT22;3264;42.862;25.098;2023-01-19T06:55:14;14.90;64.60
6462;DHT22;3264;42.862;25.098;2023-01-19T06:57:42;15.00;63.60
6462;DHT22;3264;42.862;25.098;2023-01-19T07:00:11;14.50;66.70
6462;DHT22;3264;42.862;25.098;2023-01-19T07:02:40;15.40;59.80
6462;DHT22;3264;42.862;25.098;2023-01-19T07:05:09;15.80;57.90
6462;DHT22;3264;42.862;25.098;2023-01-19T07:07:41;15.70;58.30
6462;DHT22;3264;42.862;25.098;2023-01-19T07:12:57;16.50;57.40
6462;DHT22;3264;42.862;25.098;2023-01-19T07:15:29;16.90;55.40
6462;DHT22;3264;42.862;25.098;2023-01-19T07:18:01;17.10;55.40
6462;DHT22;3264;42.862;25.098;2023-01-19T07:20:34;16.10;57.80
6462;DHT22;3264;42.862;25.098;2023-01-19T07:23:06;16.40;61.10
6462;DHT22;3264;42.862;25.098;2023-01-19T07:25:34;16.60;60.80
6462;DHT22;3264;42.862;25.098;2023-01-19T07:28:08;16.60;60.60
6462;DHT22;3264;42.862;25.098;2023-01-19T07:30:37;16.90;59.40
6462;DHT22;3264;42.862;25.098;2023-01-19T07:33:11;17.10;59.30
6462;DHT22;3264;42.862;25.098;2023-01-19T07:35:39;17.00;59.50
6462;DHT22;3264;42.862;25.098;2023-01-19T07:38:07;17.20;59.70
6462;DHT22;3264;42.862;25.098;2023-01-19T07:40:37;17.40;57.60
6462;DHT22;3264;42.862;25.098;2023-01-19T07:43:15;17.70;56.90
6462;DHT22;3264;42.862;25.098;2023-01-19T07:45:46;17.70;58.00
6462;DHT22;3264;42.862;25.098;2023-01-19T07:48:16;17.10;58.80
6462;DHT22;3264;42.862;25.098;2023-01-19T07:50:45;17.80;59.60
6462;DHT22;3264;42.862;25.098;2023-01-19T07:53:12;18.00;57.80
6462;DHT22;3264;42.862;25.098;2023-01-19T07:55:54;18.80;58.10
6462;DHT22;3264;42.862;25.098;2023-01-19T07:58:37;19.50;57.00
6462;DHT22;3264;42.862;25.098;2023-01-19T08:01:06;19.00;53.10
6462;DHT22;3264;42.862;25.098;2023-01-19T08:03:36;20.00;51.80
6462;DHT22;3264;42.862;25.098;2023-01-19T08:06:18;20.30;49.70
6462;DHT22;3264;42.862;25.098;2023-01-19T08:08:54;20.80;50.60
6462;DHT22;3264;42.862;25.098;2023-01-19T08:11:21;20.80;51.00
6462;DHT22;3264;42.862;25.098;2023-01-19T08:13:53;22.40;50.50
6462;DHT22;3264;42.862;25.098;2023-01-19T08:16:26;21.80;50.40
6462;DHT22;3264;42.862;25.098;2023-01-19T08:18:57;21.10;51.70
6462;DHT22;3264;42.862;25.098;2023-01-19T08:21:25;22.10;52.10
6462;DHT22;3264;42.862;25.098;2023-01-19T08:23:56;23.20;48.70
6462;DHT22;3264;42.862;25.098;2023-01-19T08:26:29;22.30;49.50
6462;DHT22;3264;42.862;25.098;2023-01-19T08:29:20;22.20;49.30
6462;DHT22;3264;42.862;25.098;2023-01-19T08:31:51;22.50;50.40
6462;DHT22;3264;42.862;25.098;2023-01-19T08:34:23;21.10;50.50
6462;DHT22;3264;42.862;25.098;2023-01-19T08:36:52;21.10;53.10
6462;DHT22;3264;42.862;25.098;2023-01-19T08:39:23;21.60;50.60
6462;DHT22;3264;42.862;25.098;2023-01-19T08:41:52;21.40;52.20
6462;DHT22;3264;42.862;25.098;2023-01-19T08:44:24;19.60;52.20
6462;DHT22;3264;42.862;25.098;2023-01-19T08:46:52;18.50;55.20
6462;DHT22;3264;42.862;25.098;2023-01-19T08:49:20;18.60;56.70
6462;DHT22;3264;42.862;25.098;2023-01-19T08:51:50;18.40;56.30
6462;DHT22;3264;42.862;25.098;2023-01-19T08:54:21;18.40;55.80
6462;DHT22;3264;42.862;25.098;2023-01-19T08:56:51;18.10;55.40
6462;DHT22;3264;42.862;25.098;2023-01-19T08:59:19;20.30;55.40
6462;DHT22;3264;42.862;25.098;2023-01-19T09:01:51;19.60;54.30
6462;DHT22;3264;42.862;25.098;2023-01-19T09:04:19;20.10;53.70
6462;DHT22;3264;42.862;25.098;2023-01-19T09:06:47;20.00;54.90
6462;DHT22;3264;42.862;25.098;2023-01-19T09:09:17;21.30;53.20
6462;DHT22;3264;42.862;25.098;2023-01-19T09:11:45;21.60;51.60
6462;DHT22;3264;42.862;25.098;2023-01-19T09:14:30;22.40;50.90
6462;DHT22;3264;42.862;25.098;2023-01-19T09:17:01;22.90;49.40
6462;DHT22;3264;42.862;25.098;2023-01-19T09:19:31;21.30;49.90
6462;DHT22;3264;42.862;25.098;2023-01-19T09:21:59;23.10;49.30
6462;DHT22;3264;42.862;25.098;2023-01-19T09:24:27;23.90;47.80
6462;DHT22;3264;42.862;25.098;2023-01-19T09:26:57;22.30;47.40
6462;DHT22;3264;42.862;25.098;2023-01-19T09:29:36;22.20;49.40
6462;DHT22;3264;42.862;25.098;2023-01-19T09:32:08;23.00;49.30
6462;DHT22;3264;42.862;25.098;2023-01-19T09:34:37;23.60;47.60
6462;DHT22;3264;42.862;25.098;2023-01-19T09:37:07;22.60;48.70
6462;DHT22;3264;42.862;25.098;2023-01-19T09:39:46;23.60;49.60
6462;DHT22;3264;42.862;25.098;2023-01-19T09:42:20;23.30;47.60
6462;DHT22;3264;42.862;25.098;2023-01-19T09:44:53;24.70;46.10
6462;DHT22;3264;42.862;25.098;2023-01-19T09:47:29;24.10;45.90
6462;DHT22;3264;42.862;25.098;2023-01-19T09:50:00;24.50;47.50
6462;DHT22;3264;42.862;25.098;2023-01-19T09:52:35;24.10;46.00
6462;DHT22;3264;42.862;25.098;2023-01-19T09:55:18;25.00;46.60
6462;DHT22;3264;42.862;25.098;2023-01-19T09:57:51;24.10;44.80
6462;DHT22;3264;42.862;25.098;2023-01-19T10:00:22;24.20;46.40
6462;DHT22;3264;42.862;25.098;2023-01-19T10:03:00;22.60;46.90
6462;DHT22;3264;42.862;25.098;2023-01-19T10:05:36;26.30;45.80
6462;DHT22;3264;42.862;25.098;2023-01-19T10:08:17;25.90;43.30
6462;DHT22;3264;42.862;25.098;2023-01-19T10:10:54;24.80;43.60
6462;DHT22;3264;42.862;25.098;2023-01-19T10:13:38;25.00;45.60
6462;DHT22;3264;42.862;25.098;2023-01-19T10:16:16;26.80;43.80
6462;DHT22;3264;42.862;25.098;2023-01-19T10:18:48;26.10;42.70
6462;DHT22;3264;42.862;25.098;2023-01-19T10:21:21;26.90;43.60
6462;DHT22;3264;42.862;25.098;2023-01-19T10:23:52;26.30;43.20
6462;DHT22;3264;42.862;25.098;2023-01-19T10:26:33;26.20;43.90
6462;DHT22;3264;42.862;25.098;2023-01-19T10:29:14;26.20;42.70
6462;DHT22;3264;42.862;25.098;2023-01-19T10:31:50;26.30;40.60
6462;DHT22;3264;42.862;25.098;2023-01-19T10:34:25;23.80;38.90
6462;DHT22;3264;42.862;25.098;2023-01-19T10:36:58;26.40;41.00
6462;DHT22;3264;42.862;25.098;2023-01-19T10:39:44;26.40;40.20
6462;DHT22;3264;42.862;25.098;2023-01-19T10:42:15;26.20;38.50
6462;DHT22;3264;42.862;25.098;2023-01-19T10:44:45;26.60;41.60
6462;DHT22;3264;42.862;25.098;2023-01-19T10:47:17;26.50;40.70
6462;DHT22;3264;42.862;25.098;2023-01-19T10:49:52;25.30;41.00
6462;DHT22;3264;42.862;25.098;2023-01-19T10:52:27;27.00;39.90
6462;DHT22;3264;42.862;25.098;2023-01-19T10:54:59;27.50;41.30
6462;DHT22;3264;42.862;25.098;2023-01-19T10:57:31;27.40;40.20
6462;DHT22;3264;42.862;25.098;2023-01-19T11:00:04;27.30;40.30
6462;DHT22;3264;42.862;25.098;2023-01-19T11:02:48;27.80;39.80
6462;DHT22;3264;42.862;25.098;2023-01-19T11:05:26;27.30;39.20
6462;DHT22;3264;42.862;25.098;2023-01-19T11:07:55;27.70;37.90
6462;DHT22;3264;42.862;25.098;2023-01-19T11:10:31;26.60;39.20
6462;DHT22;3264;42.862;25.098;2023-01-19T11:13:01;27.30;40.50
6462;DHT22;3264;42.862;25.098;2023-01-19T11:15:41;28.00;40.40
6462;DHT22;3264;42.862;25.098;2023-01-19T11:18:23;27.20;39.10
6462;DHT22;3264;42.862;25.098;2023-01-19T11:20:57;28.00;39.00
6462;DHT22;3264;42.862;25.098;2023-01-19T11:23:37;27.60;37.70
6462;DHT22;3264;42.862;25.098;2023-01-19T11:26:12;26.70;36.90
6462;DHT22;3264;42.862;25.098;2023-01-19T11:28:44;26.80;37.80
6462;DHT22;3264;42.862;25.098;2023-01-19T11:31:33;28.40;37.80
6462;DHT22;3264;42.862;25.098;2023-01-19T11:34:05;25.90;37.80
6462;DHT22;3264;42.862;25.098;2023-01-19T11:37:02;26.00;39.00
6462;DHT22;3264;42.862;25.098;2023-01-19T11:39:50;25.70;39.20
6462;DHT22;3264;42.862;25.098;2023-01-19T11:42:28;25.00;40.90
6462;DHT22;3264;42.862;25.098;2023-01-19T11:45:05;25.70;39.90
6462;DHT22;3264;42.862;25.098;2023-01-19T11:47:40;26.00;39.70
6462;DHT22;3264;42.862;25.098;2023-01-19T11:50:20;25.30;40.50
6462;DHT22;3264;42.862;25.098;2023-01-19T11:52:54;26.30;40.50
6462;DHT22;3264;42.862;25.098;2023-01-19T11:55:35;25.50;40.50
6462;DHT22;3264;42.862;25.098;2023-01-19T11:58:04;27.80;39.20
6462;DHT22;3264;42.862;25.098;2023-01-19T12:00:38;26.20;37.80
6462;DHT22;3264;42.862;25.098;2023-01-19T12:03:26;26.20;38.50
6462;DHT22;3264;42.862;25.098;2023-01-19T12:06:02;26.00;40.40
6462;DHT22;3264;42.862;25.098;2023-01-19T12:08:43;24.90;38.60
6462;DHT22;3264;42.862;25.098;2023-01-19T12:11:15;24.60;41.40
6462;DHT22;3264;42.862;25.098;2023-01-19T12:13:50;23.20;42.90
6462;DHT22;3264;42.862;25.098;2023-01-19T12:16:29;23.60;43.50
6462;DHT22;3264;42.862;25.098;2023-01-19T12:19:04;23.10;43.20
6462;DHT22;3264;42.862;25.098;2023-01-19T12:21:38;23.50;44.50
6462;DHT22;3264;42.862;25.098;2023-01-19T12:24:15;22.10;43.30
6462;DHT22;3264;42.862;25.098;2023-01-19T12:26:50;21.70;44.50
6462;DHT22;3264;42.862;25.098;2023-01-19T12:29:22;22.10;45.40
6462;DHT22;3264;42.862;25.098;2023-01-19T12:32:16;22.10;44.30
6462;DHT22;3264;42.862;25.098;2023-01-19T12:34:46;22.50;44.20
6462;DHT22;3264;42.862;25.098;2023-01-19T12:37:39;22.80;43.80
6462;DHT22;3264;42.862;25.098;2023-01-19T12:40:30;22.10;43.20
6462;DHT22;3264;42.862;25.098;2023-01-19T12:43:02;23.80;45.10
6462;DHT22;3264;42.862;25.098;2023-01-19T12:45:36;23.50;42.80
6462;DHT22;3264;42.862;25.098;2023-01-19T12:48:23;22.90;45.20
6462;DHT22;3264;42.862;25.098;2023-01-19T12:50:51;23.20;46.20
6462;DHT22;3264;42.862;25.098;2023-01-19T12:53:20;22.50;44.00
6462;DHT22;3264;42.862;25.098;2023-01-19T12:56:14;21.70;45.00
6462;DHT22;3264;42.862;25.098;2023-01-19T12:58:47;20.90;47.00
6462;DHT22;3264;42.862;25.098;2023-01-19T13:01:17;21.40;47.40
6462;DHT22;3264;42.862;25.098;2023-01-19T13:04:03;20.80;47.00
6462;DHT22;3264;42.862;25.098;2023-01-19T13:07:07;21.30;48.20
6462;DHT22;3264;42.862;25.098;2023-01-19T13:09:44;20.90;47.20
6462;DHT22;3264;42.862;25.098;2023-01-19T13:12:23;20.50;47.10
6462;DHT22;3264;42.862;25.098;2023-01-19T13:15:32;20.40;48.10
6462;DHT22;3264;42.862;25.098;2023-01-19T13:18:03;19.90;47.40
6462;DHT22;3264;42.862;25.098;2023-01-19T13:20:42;20.20;47.30
6462;DHT22;3264;42.862;25.098;2023-01-19T13:23:24;20.20;47.70
6462;DHT22;3264;42.862;25.098;2023-01-19T13:26:02;20.30;44.90
6462;DHT22;3264;42.862;25.098;2023-01-19T13:28:43;20.40;46.80
6462;DHT22;3264;42.862;25.098;2023-01-19T13:31:14;20.20;47.00
6462;DHT22;3264;42.862;25.098;2023-01-19T13:33:47;20.90;49.70
6462;DHT22;3264;42.862;25.098;2023-01-19T13:36:28;21.00;47.20
6462;DHT22;3264;42.862;25.098;2023-01-19T13:39:12;21.10;47.00
6462;DHT22;3264;42.862;25.098;2023-01-19T13:41:43;21.00;47.20
6462;DHT22;3264;42.862;25.098;2023-01-19T13:47:42;19.40;49.90
6462;DHT22;3264;42.862;25.098;2023-01-19T13:50:18;19.90;50.40
6462;DHT22;3264;42.862;25.098;2023-01-19T13:52:46;20.10;50.90
6462;DHT22;3264;42.862;25.098;2023-01-19T13:55:21;20.40;51.10
6462;DHT22;3264;42.862;25.098;2023-01-19T13:57:51;19.90;49.70
6462;DHT22;3264;42.862;25.098;2023-01-19T14:00:23;19.30;50.60
6462;DHT22;3264;42.862;25.098;2023-01-19T14:03:12;19.40;51.10
6462;DHT22;3264;42.862;25.098;2023-01-19T14:05:48;19.70;51.20
6462;DHT22;3264;42.862;25.098;2023-01-19T14:08:25;19.40;50.30
6462;DHT22;3264;42.862;25.098;2023-01-19T14:11:02;19.00;48.80
6462;DHT22;3264;42.862;25.098;2023-01-19T14:13:34;18.90;49.50
6462;DHT22;3264;42.862;25.098;2023-01-19T14:16:16;18.70;51.20
6462;DHT22;3264;42.862;25.098;2023-01-19T14:19:00;18.60;52.10
6462;DHT22;3264;42.862;25.098;2023-01-19T14:21:56;18.60;52.20
6462;DHT22;3264;42.862;25.098;2023-01-19T14:24:24;18.10;52.40
6462;DHT22;3264;42.862;25.098;2023-01-19T14:27:20;17.90;53.60
6462;DHT22;3264;42.862;25.098;2023-01-19T14:29:50;17.80;54.60
6462;DHT22;3264;42.862;25.098;2023-01-19T14:32:21;17.50;54.70
6462;DHT22;3264;42.862;25.098;2023-01-19T14:35:20;17.20;55.40
6462;DHT22;3264;42.862;25.098;2023-01-19T14:37:58;17.20;56.30
6462;DHT22;3264;42.862;25.098;2023-01-19T14:40:29;17.00;56.80
6462;DHT22;3264;42.862;25.098;2023-01-19T14:43:00;17.00;55.60
6462;DHT22;3264;42.862;25.098;2023-01-19T14:45:31;17.00;54.50
6462;DHT22;3264;42.862;25.098;2023-01-19T14:48:05;16.90;54.50
6462;DHT22;3264;42.862;25.098;2023-01-19T14:50:37;16.90;54.80
6462;DHT22;3264;42.862;25.098;2023-01-19T14:53:19;16.70;55.70
6462;DHT22;3264;42.862;25.098;2023-01-19T14:55:51;16.50;56.70
6462;DHT22;3264;42.862;25.098;2023-01-19T14:58:22;16.50;56.60
6462;DHT22;3264;42.862;25.098;2023-01-19T15:00:51;16.40;56.80
6462;DHT22;3264;42.862;25.098;2023-01-19T15:03:21;16.40;56.80
6462;DHT22;3264;42.862;25.098;2023-01-19T15:05:59;16.30;56.80
6462;DHT22;3264;42.862;25.098;2023-01-19T15:08:29;16.30;56.80
6462;DHT22;3264;42.862;25.098;2023-01-19T15:11:15;16.30;56.80
6462;DHT22;3264;42.862;25.098;2023-01-19T15:13:51;16.20;57.30
6462;DHT22;3264;42.862;25.098;2023-01-19T15:16:25;16.10;57.60
6462;DHT22;3264;42.862;25.098;2023-01-19T15:18:54;16.00;57.80
6462;DHT22;3264;42.862;25.098;2023-01-19T15:21:29;16.00;57.80
6462;DHT22;3264;42.862;25.098;2023-01-19T15:23:57;15.90;58.20
6462;DHT22;3264;42.862;25.098;2023-01-19T15:26:27;15.80;58.60
6462;DHT22;3264;42.862;25.098;2023-01-19T15:28:58;15.80;58.40
6462;DHT22;3264;42.862;25.098;2023-01-19T15:31:26;15.90;58.70
6462;DHT22;3264;42.862;25.098;2023-01-19T15:33:56;15.80;58.10
6462;DHT22;3264;42.862;25.098;2023-01-19T15:36:27;15.60;58.10
6462;DHT22;3264;42.862;25.098;2023-01-19T15:39:19;16.00;55.40
6462;DHT22;3264;42.862;25.098;2023-01-19T15:41:55;16.00;55.50
6462;DHT22;3264;42.862;25.098;2023-01-19T15:44:40;15.80;57.50
6462;DHT22;3264;42.862;25.098;2023-01-19T15:47:08;15.60;58.00
6462;DHT22;3264;42.862;25.098;2023-01-19T15:49:39;15.50;58.70
6462;DHT22;3264;42.862;25.098;2023-01-19T15:52:18;15.50;58.60
6462;DHT22;3264;42.862;25.098;2023-01-19T15:54:47;15.30;59.10
6462;DHT22;3264;42.862;25.098;2023-01-19T15:57:15;15.40;58.60
6462;DHT22;3264;42.862;25.098;2023-01-19T15:59:43;15.30;58.90
6462;DHT22;3264;42.862;25.098;2023-01-19T16:02:11;15.30;59.00
6462;DHT22;3264;42.862;25.098;2023-01-19T16:04:39;15.30;59.10
6462;DHT22;3264;42.862;25.098;2023-01-19T16:07:20;15.20;59.60
6462;DHT22;3264;42.862;25.098;2023-01-19T16:09:58;15.20;59.60
6462;DHT22;3264;42.862;25.098;2023-01-19T16:12:27;15.20;59.40
6462;DHT22;3264;42.862;25.098;2023-01-19T16:14:56;15.20;59.90
6462;DHT22;3264;42.862;25.098;2023-01-19T16:17:25;15.20;59.10
6462;DHT22;3264;42.862;25.098;2023-01-19T16:19:53;15.20;58.90
6462;DHT22;3264;42.862;25.098;2023-01-19T16:22:24;15.20;58.70
6462;DHT22;3264;42.862;25.098;2023-01-19T16:24:52;15.00;59.40
6462;DHT22;3264;42.862;25.098;2023-01-19T16:27:25;15.00;59.90
6462;DHT22;3264;42.862;25.098;2023-01-19T16:30:09;15.00;60.20
6462;DHT22;3264;42.862;25.098;2023-01-19T16:32:37;14.90;60.40
6462;DHT22;3264;42.862;25.098;2023-01-19T16:35:08;14.80;60.60